Zim Luanda — 9HA2029 — position and weather

sailwx.info

Track history (hours):
 
Tides and Currents Weather Stations Pressure Air Temp Water Temp Dewpoint Dewpoint Depression Visibility Wind Speed Wind Dir Waves Ship Positions

Zim Luanda

Last reported at 2017-May-17 17:01 UTC. Time now 2017-May-25 12:19 UTC.
Position N 31°56' W 078°34'.

Length 260 m; draft 10.7 m.

Type: Ship (hazmat cat A). MMSI: 249830000.

Date/timePositionNaut miles runAvg speedWind from/ knotsBaromVisibWave heightAir tempDewpointWater temp
2017-May-17 17:01N 31°56' W 078°34'114.2
2017-May-17 16:57N 31°56' W 078°35'3114.5
2017-May-17 14:49N 31°56' W 079°11'1514.0
2017-May-17 13:44N 31°56' W 079°29'313.0
2017-May-17 13:29N 31°56' W 079°33'812.8
2017-May-17 12:54N 31°56' W 079°42'612.8
2017-May-17 12:27N 31°56' W 079°49'1012.9
2017-May-17 11:43N 31°56' W 079°60'313.0
2017-May-17 11:30N 31°56' W 080°03'1012.9
2017-May-17 10:43N 31°56' W 080°15'312.8
2017-May-17 10:28N 31°56' W 080°19'813.0
2017-May-17 09:49N 31°56' W 080°29'413.2
2017-May-17 09:30N 31°56' W 080°33'612.7
2017-May-17 09:00N 31°57' W 080°41'611.2
2017-May-17 08:30N 31°59' W 080°47'713.0
2017-May-17 08:00N 32°02' W 080°54'611.5
2017-May-17 07:30N 32°05' W 080°59'4 8.4
2017-May-17 07:00N 32°05' W 081°04'3 5.0
2017-May-17 06:30N 32°06' W 081°07'1 2.2
2017-May-17 05:49N 32°07' W 081°08'0 0.0
2017-May-17 05:19N 32°07' W 081°08'0 0.0
2017-May-17 04:25N 32°07' W 081°08'0 0.0
2017-May-17 03:55N 32°07' W 081°08'0 0.0
2017-May-17 03:25N 32°07' W 081°08'0 0.0
2017-May-17 02:55N 32°07' W 081°08'0 0.0
2017-May-17 01:37N 32°07' W 081°08'0 0.0
2017-May-17 01:25N 32°07' W 081°08'0 0.0
2017-May-17 00:55N 32°07' W 081°08'0 0.0
2017-May-17 00:01N 32°07' W 081°08'0 0.0
2017-May-16 23:55N 32°07' W 081°08'0 0.0
2017-May-16 23:25N 32°07' W 081°08'0 0.0
2017-May-16 22:43N 32°07' W 081°08'0 0.0
2017-May-16 22:19N 32°07' W 081°08'0 0.0
2017-May-16 21:55N 32°07' W 081°08'0 0.0
2017-May-16 21:13N 32°07' W 081°08'0 0.0
2017-May-16 20:49N 32°07' W 081°08'0 0.0
2017-May-16 20:25N 32°07' W 081°08'0 0.0
2017-May-16 19:55N 32°07' W 081°08'0 0.0
2017-May-16 19:25N 32°07' W 081°08'0 0.0
2017-May-16 18:55N 32°07' W 081°08'0 0.0
2017-May-16 18:25N 32°07' W 081°08'0 0.0
2017-May-16 18:01N 32°07' W 081°08'0 0.0
2017-May-16 17:25N 32°07' W 081°08'0 0.0
2017-May-16 16:55N 32°07' W 081°08'0 0.0
2017-May-16 16:25N 32°07' W 081°08'0 0.0
2017-May-16 16:00N 32°07' W 081°08'1 1.3
2017-May-16 15:30N 32°08' W 081°08'2 3.1
2017-May-16 15:00N 32°07' W 081°07'3 6.4
2017-May-16 14:30N 32°05' W 081°04'9 9.4
2017-May-16 13:30N 32°02' W 080°53'714.4
2017-May-16 13:00N 31°59' W 080°46'510.4
2017-May-16 12:31N 31°58' W 080°40'3 3.3
2017-May-16 11:44N 32°00' W 080°39'0 0.0
2017-May-16 11:26N 32°00' W 080°39'0 0.0
2017-May-16 10:56N 32°00' W 080°39'0 0.0
2017-May-16 10:26N 32°00' W 080°39'0 0.0
2017-May-16 09:56N 32°00' W 080°39'0 0.0
2017-May-16 09:14N 32°00' W 080°39'0 0.4
2017-May-16 09:00N 32°00' W 080°39'3 5.9
2017-May-16 08:30N 31°59' W 080°36'5 9.2
2017-May-16 08:00N 31°58' W 080°31'5 9.7
2017-May-16 07:30N 31°57' W 080°25'511.0
2017-May-16 07:00N 31°56' W 080°19'510.7
2017-May-16 06:30N 31°57' W 080°13'510.8
2017-May-16 06:00N 31°58' W 080°07'510.7
2017-May-16 05:30N 31°60' W 080°01'510.8
2017-May-16 05:00N 32°02' W 079°55'510.8
2017-May-16 04:30N 32°04' W 079°49'510.9
2017-May-16 04:00N 32°05' W 079°42'510.8
2017-May-16 03:30N 32°08' W 079°37'611.0
2017-May-16 03:00N 32°11' W 079°31'611.1
2017-May-16 02:30N 32°14' W 079°26'611.2
2017-May-16 02:00N 32°17' W 079°21'611.1
2017-May-16 01:30N 32°20' W 079°15'3 6.9
2017-May-16 01:00N 32°22' W 079°12'611.1
2017-May-16 00:30N 32°25' W 079°06'611.3
2017-May-16 00:00N 32°28' W 079°01'611.4
2017-May-15 23:30N 32°31' W 078°55'611.5
2017-May-15 23:00N 32°35' W 078°49'611.7
2017-May-15 22:30N 32°38' W 078°44'611.9
2017-May-15 22:00N 32°41' W 078°38'612.0
2017-May-15 21:30N 32°45' W 078°32'611.9
2017-May-15 21:00N 32°48' W 078°26'22015.7
2017-May-15 07:03N 35°09' W 075°03'114.1
2017-May-15 07:00N 35°10' W 075°03'4716.1
2017-May-15 04:04N 35°57' W 075°02'116.4
2017-May-15 04:00N 35°58' W 075°02'816.3
2017-May-15 03:30N 36°06' W 075°04'916.4
2017-May-15 02:57N 36°15' W 075°07'4714.5
2017-May-14 23:41N 36°49' W 075°47'816.5
2017-May-14 23:13N 36°54' W 075°55'416.7
2017-May-14 23:00N 36°56' W 075°58'714.4
2017-May-14 22:30N 36°59' W 076°07'1115.4
2017-May-14 21:49N 36°58' W 076°20'2 7.1
2017-May-14 21:30N 36°56' W 076°20'0 0.1
2017-May-14 20:54N 36°56' W 076°20'0 0.0
2017-May-14 20:30N 36°56' W 076°20'0 0.0
2017-May-14 20:00N 36°56' W 076°20'0 0.0
2017-May-14 19:30N 36°56' W 076°20'0 0.0
2017-May-14 18:57N 36°56' W 076°20'0 0.0
2017-May-14 18:30N 36°56' W 076°20'0 0.0
2017-May-14 18:00N 36°56' W 076°20'0 0.0
2017-May-14 17:30N 36°56' W 076°20'0 0.0
2017-May-14 17:00N 36°56' W 076°20'0 0.0
2017-May-14 16:27N 36°56' W 076°20'0 0.0
2017-May-14 15:57N 36°56' W 076°20'0 0.0
2017-May-14 15:30N 36°56' W 076°20'0 0.0
2017-May-14 15:00N 36°56' W 076°20'0 0.0
2017-May-14 14:30N 36°56' W 076°20'0 0.0
2017-May-14 13:27N 36°56' W 076°20'0 0.0
2017-May-14 12:57N 36°56' W 076°20'0 0.0
2017-May-14 12:27N 36°56' W 076°20'0 0.0
2017-May-14 12:00N 36°56' W 076°20'0 0.0
2017-May-14 11:30N 36°56' W 076°20'0 0.0
2017-May-14 11:00N 36°56' W 076°20'0 0.0
2017-May-14 10:30N 36°56' W 076°20'0 0.0
2017-May-14 10:00N 36°56' W 076°20'1 2.6
2017-May-14 09:30N 36°57' W 076°20'610.6
2017-May-14 08:57N 37°00' W 076°14'716.5
2017-May-14 08:30N 36°58' W 076°06'713.5
2017-May-14 08:00N 36°57' W 075°57'3 6.5
2017-May-14 07:30N 36°55' W 075°54'4 8.3
2017-May-14 07:00N 36°52' W 075°50'4 8.6
2017-May-14 06:30N 36°50' W 075°46'18710.6
2017-May-13 12:52N 39°36' W 073°56'411.2
2017-May-13 12:28N 39°40' W 073°55'611.3
2017-May-13 11:58N 39°45' W 073°52'611.2
2017-May-13 11:26N 39°51' W 073°52'3411.3
2017-May-13 08:26N 40°25' W 073°49'4 8.7
2017-May-13 08:01N 40°28' W 073°52'917.5
2017-May-13 07:30N 40°33' W 074°02'612.8
2017-May-13 07:00N 40°39' W 074°05'3 5.4
2017-May-13 06:30N 40°39' W 074°09'1 2.0
2017-May-13 06:00N 40°40' W 074°09'0 0.0
2017-May-13 05:30N 40°40' W 074°09'0 0.0
2017-May-13 05:00N 40°40' W 074°09'0 0.0
2017-May-13 04:30N 40°40' W 074°09'0 0.0
2017-May-13 04:00N 40°40' W 074°09'0 0.0
2017-May-13 03:30N 40°40' W 074°09'0 0.0
2017-May-13 03:00N 40°40' W 074°09'0 0.0
2017-May-13 02:30N 40°40' W 074°09'0 0.0
2017-May-13 02:00N 40°40' W 074°09'0 0.0
2017-May-13 01:30N 40°40' W 074°09'0 0.0
2017-May-13 01:00N 40°40' W 074°09'0 0.0
2017-May-13 00:30N 40°40' W 074°09'0 0.0
2017-May-13 00:00N 40°40' W 074°09'0 0.0
2017-May-12 23:30N 40°40' W 074°09'0 0.0
2017-May-12 23:00N 40°40' W 074°09'0 0.0
2017-May-12 22:30N 40°40' W 074°09'0 0.0
2017-May-12 22:00N 40°40' W 074°09'0 0.0
2017-May-12 21:30N 40°40' W 074°09'0 0.0
2017-May-12 21:00N 40°40' W 074°09'0 0.0
2017-May-12 20:30N 40°40' W 074°09'0 0.0
2017-May-12 20:00N 40°40' W 074°09'0 0.0
2017-May-12 19:30N 40°40' W 074°09'0 0.0
2017-May-12 19:00N 40°40' W 074°09'0 0.0
2017-May-12 18:30N 40°40' W 074°09'0 0.0
2017-May-12 18:00N 40°40' W 074°09'0 0.0
2017-May-12 17:30N 40°40' W 074°09'0 0.0
2017-May-12 17:00N 40°40' W 074°09'0 0.0
2017-May-12 16:30N 40°40' W 074°09'0 0.0
2017-May-12 16:00N 40°40' W 074°09'0 0.0
2017-May-12 15:30N 40°40' W 074°09'0 0.0
2017-May-12 14:57N 40°40' W 074°09'0 0.0
2017-May-12 14:30N 40°40' W 074°09'0 0.0
2017-May-12 13:30N 40°40' W 074°09'0 0.0
2017-May-12 13:00N 40°40' W 074°09'0 0.0
2017-May-12 12:27N 40°40' W 074°09'0 0.0
2017-May-12 12:00N 40°40' W 074°09'0 0.0
2017-May-12 11:30N 40°40' W 074°09'0 0.0
2017-May-12 11:00N 40°40' W 074°09'0 0.0
2017-May-12 10:30N 40°40' W 074°09'0 0.0
2017-May-12 10:00N 40°40' W 074°09'1 2.2
2017-May-12 09:30N 40°39' W 074°09'3 6.6
2017-May-12 09:00N 40°39' W 074°05'4 7.8
2017-May-12 08:30N 40°35' W 074°02'4 8.5
2017-May-12 08:00N 40°32' W 074°01'611.6
2017-May-12 07:30N 40°29' W 073°54'510.1
2017-May-12 07:00N 40°27' W 073°47'510.0
2017-May-12 06:29N 40°28' W 073°41'  
Track history (hours):
 
Tides and Currents Weather Stations Pressure Air Temp Water Temp Dewpoint Dewpoint Depression Visibility Wind Speed Wind Dir Waves Ship Positions

Zim Luanda

Last reported at 2017-May-17 17:01 UTC. Time now 2017-May-25 12:19 UTC.
Position N 31°56' W 078°34'.

Length 260 m; draft 10.7 m.

Type: Ship (hazmat cat A). MMSI: 249830000.

Date/timePositionNaut miles runAvg speedWind from/ knotsBaromVisibWave heightAir tempDewpointWater temp
2017-May-17 17:01N 31°56' W 078°34'114.2
2017-May-17 16:57N 31°56' W 078°35'3114.5
2017-May-17 14:49N 31°56' W 079°11'1514.0
2017-May-17 13:44N 31°56' W 079°29'313.0
2017-May-17 13:29N 31°56' W 079°33'812.8
2017-May-17 12:54N 31°56' W 079°42'612.8
2017-May-17 12:27N 31°56' W 079°49'1012.9
2017-May-17 11:43N 31°56' W 079°60'313.0
2017-May-17 11:30N 31°56' W 080°03'1012.9
2017-May-17 10:43N 31°56' W 080°15'312.8
2017-May-17 10:28N 31°56' W 080°19'813.0
2017-May-17 09:49N 31°56' W 080°29'413.2
2017-May-17 09:30N 31°56' W 080°33'612.7
2017-May-17 09:00N 31°57' W 080°41'611.2
2017-May-17 08:30N 31°59' W 080°47'713.0
2017-May-17 08:00N 32°02' W 080°54'611.5
2017-May-17 07:30N 32°05' W 080°59'4 8.4
2017-May-17 07:00N 32°05' W 081°04'3 5.0
2017-May-17 06:30N 32°06' W 081°07'1 2.2
2017-May-17 05:49N 32°07' W 081°08'0 0.0
2017-May-17 05:19N 32°07' W 081°08'0 0.0
2017-May-17 04:25N 32°07' W 081°08'0 0.0
2017-May-17 03:55N 32°07' W 081°08'0 0.0
2017-May-17 03:25N 32°07' W 081°08'0 0.0
2017-May-17 02:55N 32°07' W 081°08'0 0.0
2017-May-17 01:37N 32°07' W 081°08'0 0.0
2017-May-17 01:25N 32°07' W 081°08'0 0.0
2017-May-17 00:55N 32°07' W 081°08'0 0.0
2017-May-17 00:01N 32°07' W 081°08'0 0.0
2017-May-16 23:55N 32°07' W 081°08'0 0.0
2017-May-16 23:25N 32°07' W 081°08'0 0.0
2017-May-16 22:43N 32°07' W 081°08'0 0.0
2017-May-16 22:19N 32°07' W 081°08'0 0.0
2017-May-16 21:55N 32°07' W 081°08'0 0.0
2017-May-16 21:13N 32°07' W 081°08'0 0.0
2017-May-16 20:49N 32°07' W 081°08'0 0.0
2017-May-16 20:25N 32°07' W 081°08'0 0.0
2017-May-16 19:55N 32°07' W 081°08'0 0.0
2017-May-16 19:25N 32°07' W 081°08'0 0.0
2017-May-16 18:55N 32°07' W 081°08'0 0.0
2017-May-16 18:25N 32°07' W 081°08'0 0.0
2017-May-16 18:01N 32°07' W 081°08'0 0.0
2017-May-16 17:25N 32°07' W 081°08'0 0.0
2017-May-16 16:55N 32°07' W 081°08'0 0.0
2017-May-16 16:25N 32°07' W 081°08'0 0.0
2017-May-16 16:00N 32°07' W 081°08'1 1.3
2017-May-16 15:30N 32°08' W 081°08'2 3.1
2017-May-16 15:00N 32°07' W 081°07'3 6.4
2017-May-16 14:30N 32°05' W 081°04'9 9.4
2017-May-16 13:30N 32°02' W 080°53'714.4
2017-May-16 13:00N 31°59' W 080°46'510.4
2017-May-16 12:31N 31°58' W 080°40'3 3.3
2017-May-16 11:44N 32°00' W 080°39'0 0.0
2017-May-16 11:26N 32°00' W 080°39'0 0.0
2017-May-16 10:56N 32°00' W 080°39'0 0.0
2017-May-16 10:26N 32°00' W 080°39'0 0.0
2017-May-16 09:56N 32°00' W 080°39'0 0.0
2017-May-16 09:14N 32°00' W 080°39'0 0.4
2017-May-16 09:00N 32°00' W 080°39'3 5.9
2017-May-16 08:30N 31°59' W 080°36'5 9.2
2017-May-16 08:00N 31°58' W 080°31'5 9.7
2017-May-16 07:30N 31°57' W 080°25'511.0
2017-May-16 07:00N 31°56' W 080°19'510.7
2017-May-16 06:30N 31°57' W 080°13'510.8
2017-May-16 06:00N 31°58' W 080°07'510.7
2017-May-16 05:30N 31°60' W 080°01'510.8
2017-May-16 05:00N 32°02' W 079°55'510.8
2017-May-16 04:30N 32°04' W 079°49'510.9
2017-May-16 04:00N 32°05' W 079°42'510.8
2017-May-16 03:30N 32°08' W 079°37'611.0
2017-May-16 03:00N 32°11' W 079°31'611.1
2017-May-16 02:30N 32°14' W 079°26'611.2
2017-May-16 02:00N 32°17' W 079°21'611.1
2017-May-16 01:30N 32°20' W 079°15'3 6.9
2017-May-16 01:00N 32°22' W 079°12'611.1
2017-May-16 00:30N 32°25' W 079°06'611.3
2017-May-16 00:00N 32°28' W 079°01'611.4
2017-May-15 23:30N 32°31' W 078°55'611.5
2017-May-15 23:00N 32°35' W 078°49'611.7
2017-May-15 22:30N 32°38' W 078°44'611.9
2017-May-15 22:00N 32°41' W 078°38'612.0
2017-May-15 21:30N 32°45' W 078°32'611.9
2017-May-15 21:00N 32°48' W 078°26'22015.7
2017-May-15 07:03N 35°09' W 075°03'114.1
2017-May-15 07:00N 35°10' W 075°03'4716.1
2017-May-15 04:04N 35°57' W 075°02'116.4
2017-May-15 04:00N 35°58' W 075°02'816.3
2017-May-15 03:30N 36°06' W 075°04'916.4
2017-May-15 02:57N 36°15' W 075°07'4714.5
2017-May-14 23:41N 36°49' W 075°47'816.5
2017-May-14 23:13N 36°54' W 075°55'416.7
2017-May-14 23:00N 36°56' W 075°58'714.4
2017-May-14 22:30N 36°59' W 076°07'1115.4
2017-May-14 21:49N 36°58' W 076°20'2 7.1
2017-May-14 21:30N 36°56' W 076°20'0 0.1
2017-May-14 20:54N 36°56' W 076°20'0 0.0
2017-May-14 20:30N 36°56' W 076°20'0 0.0
2017-May-14 20:00N 36°56' W 076°20'0 0.0
2017-May-14 19:30N 36°56' W 076°20'0 0.0
2017-May-14 18:57N 36°56' W 076°20'0 0.0
2017-May-14 18:30N 36°56' W 076°20'0 0.0
2017-May-14 18:00N 36°56' W 076°20'0 0.0
2017-May-14 17:30N 36°56' W 076°20'0 0.0
2017-May-14 17:00N 36°56' W 076°20'0 0.0
2017-May-14 16:27N 36°56' W 076°20'0 0.0
2017-May-14 15:57N 36°56' W 076°20'0 0.0
2017-May-14 15:30N 36°56' W 076°20'0 0.0
2017-May-14 15:00N 36°56' W 076°20'0 0.0
2017-May-14 14:30N 36°56' W 076°20'0 0.0
2017-May-14 13:27N 36°56' W 076°20'0 0.0
2017-May-14 12:57N 36°56' W 076°20'0 0.0
2017-May-14 12:27N 36°56' W 076°20'0 0.0
2017-May-14 12:00N 36°56' W 076°20'0 0.0
2017-May-14 11:30N 36°56' W 076°20'0 0.0
2017-May-14 11:00N 36°56' W 076°20'0 0.0
2017-May-14 10:30N 36°56' W 076°20'0 0.0
2017-May-14 10:00N 36°56' W 076°20'1 2.6
2017-May-14 09:30N 36°57' W 076°20'610.6
2017-May-14 08:57N 37°00' W 076°14'716.5
2017-May-14 08:30N 36°58' W 076°06'713.5
2017-May-14 08:00N 36°57' W 075°57'3 6.5
2017-May-14 07:30N 36°55' W 075°54'4 8.3
2017-May-14 07:00N 36°52' W 075°50'4 8.6
2017-May-14 06:30N 36°50' W 075°46'18710.6
2017-May-13 12:52N 39°36' W 073°56'411.2
2017-May-13 12:28N 39°40' W 073°55'611.3
2017-May-13 11:58N 39°45' W 073°52'611.2
2017-May-13 11:26N 39°51' W 073°52'3411.3
2017-May-13 08:26N 40°25' W 073°49'4 8.7
2017-May-13 08:01N 40°28' W 073°52'917.5
2017-May-13 07:30N 40°33' W 074°02'612.8
2017-May-13 07:00N 40°39' W 074°05'3 5.4
2017-May-13 06:30N 40°39' W 074°09'1 2.0
2017-May-13 06:00N 40°40' W 074°09'0 0.0
2017-May-13 05:30N 40°40' W 074°09'0 0.0
2017-May-13 05:00N 40°40' W 074°09'0 0.0
2017-May-13 04:30N 40°40' W 074°09'0 0.0
2017-May-13 04:00N 40°40' W 074°09'0 0.0
2017-May-13 03:30N 40°40' W 074°09'0 0.0
2017-May-13 03:00N 40°40' W 074°09'0 0.0
2017-May-13 02:30N 40°40' W 074°09'0 0.0
2017-May-13 02:00N 40°40' W 074°09'0 0.0
2017-May-13 01:30N 40°40' W 074°09'0 0.0
2017-May-13 01:00N 40°40' W 074°09'0 0.0
2017-May-13 00:30N 40°40' W 074°09'0 0.0
2017-May-13 00:00N 40°40' W 074°09'0 0.0
2017-May-12 23:30N 40°40' W 074°09'0 0.0
2017-May-12 23:00N 40°40' W 074°09'0 0.0
2017-May-12 22:30N 40°40' W 074°09'0 0.0
2017-May-12 22:00N 40°40' W 074°09'0 0.0
2017-May-12 21:30N 40°40' W 074°09'0 0.0
2017-May-12 21:00N 40°40' W 074°09'0 0.0
2017-May-12 20:30N 40°40' W 074°09'0 0.0
2017-May-12 20:00N 40°40' W 074°09'0 0.0
2017-May-12 19:30N 40°40' W 074°09'0 0.0
2017-May-12 19:00N 40°40' W 074°09'0 0.0
2017-May-12 18:30N 40°40' W 074°09'0 0.0
2017-May-12 18:00N 40°40' W 074°09'0 0.0
2017-May-12 17:30N 40°40' W 074°09'0 0.0
2017-May-12 17:00N 40°40' W 074°09'0 0.0
2017-May-12 16:30N 40°40' W 074°09'0 0.0
2017-May-12 16:00N 40°40' W 074°09'0 0.0
2017-May-12 15:30N 40°40' W 074°09'0 0.0
2017-May-12 14:57N 40°40' W 074°09'0 0.0
2017-May-12 14:30N 40°40' W 074°09'0 0.0
2017-May-12 13:30N 40°40' W 074°09'0 0.0
2017-May-12 13:00N 40°40' W 074°09'0 0.0
2017-May-12 12:27N 40°40' W 074°09'0 0.0
2017-May-12 12:00N 40°40' W 074°09'0 0.0
2017-May-12 11:30N 40°40' W 074°09'0 0.0
2017-May-12 11:00N 40°40' W 074°09'0 0.0
2017-May-12 10:30N 40°40' W 074°09'0 0.0
2017-May-12 10:00N 40°40' W 074°09'1 2.2
2017-May-12 09:30N 40°39' W 074°09'3 6.6
2017-May-12 09:00N 40°39' W 074°05'4 7.8
2017-May-12 08:30N 40°35' W 074°02'4 8.5
2017-May-12 08:00N 40°32' W 074°01'611.6
2017-May-12 07:30N 40°29' W 073°54'510.1
2017-May-12 07:00N 40°27' W 073°47'510.0
2017-May-12 06:29N 40°28' W 073°41'  

Dump ship's entire track history